sensor_id;sensor_type;location;lat;lon;timestamp;temperature;humidity
24408;DHT22;12542;50.924;4.516;2022-10-31T00:00:27;15.20;99.90
24408;DHT22;12542;50.924;4.516;2022-10-31T00:02:56;15.10;99.90
24408;DHT22;12542;50.924;4.516;2022-10-31T00:05:21;15.10;99.90
24408;DHT22;12542;50.924;4.516;2022-10-31T00:07:47;15.10;99.90
24408;DHT22;12542;50.924;4.516;2022-10-31T00:10:16;15.20;99.90
24408;DHT22;12542;50.924;4.516;2022-10-31T00:12:42;15.20;99.90
24408;DHT22;12542;50.924;4.516;2022-10-31T00:15:08;15.20;99.90
24408;DHT22;12542;50.924;4.516;2022-10-31T00:17:35;15.10;99.90
24408;DHT22;12542;50.924;4.516;2022-10-31T00:20:02;15.10;99.90
24408;DHT22;12542;50.924;4.516;2022-10-31T00:22:28;14.90;99.90
24408;DHT22;12542;50.924;4.516;2022-10-31T00:24:53;14.90;99.90
24408;DHT22;12542;50.924;4.516;2022-10-31T00:27:19;14.90;99.90
24408;DHT22;12542;50.924;4.516;2022-10-31T00:29:45;14.90;99.90
24408;DHT22;12542;50.924;4.516;2022-10-31T00:32:11;14.80;99.90
24408;DHT22;12542;50.924;4.516;2022-10-31T00:34:37;14.80;99.90
24408;DHT22;12542;50.924;4.516;2022-10-31T00:37:02;14.70;99.90
24408;DHT22;12542;50.924;4.516;2022-10-31T00:39:28;14.70;99.90
24408;DHT22;12542;50.924;4.516;2022-10-31T00:41:54;14.60;99.90
24408;DHT22;12542;50.924;4.516;2022-10-31T00:44:20;14.60;99.90
24408;DHT22;12542;50.924;4.516;2022-10-31T00:46:45;14.60;99.90
24408;DHT22;12542;50.924;4.516;2022-10-31T00:49:11;14.60;99.90
24408;DHT22;12542;50.924;4.516;2022-10-31T00:51:37;14.50;99.90
24408;DHT22;12542;50.924;4.516;2022-10-31T00:54:03;14.50;99.90
24408;DHT22;12542;50.924;4.516;2022-10-31T00:56:29;14.50;99.90
24408;DHT22;12542;50.924;4.516;2022-10-31T00:58:54;14.50;99.90
24408;DHT22;12542;50.924;4.516;2022-10-31T01:01:20;14.40;99.90
24408;DHT22;12542;50.924;4.516;2022-10-31T01:03:46;14.40;99.90
24408;DHT22;12542;50.924;4.516;2022-10-31T01:06:13;14.30;99.90
24408;DHT22;12542;50.924;4.516;2022-10-31T01:08:41;14.30;99.90
24408;DHT22;12542;50.924;4.516;2022-10-31T01:11:15;14.20;99.90
24408;DHT22;12542;50.924;4.516;2022-10-31T01:13:41;14.20;99.90
24408;DHT22;12542;50.924;4.516;2022-10-31T01:16:10;14.00;99.90
24408;DHT22;12542;50.924;4.516;2022-10-31T01:18:37;13.90;99.90
24408;DHT22;12542;50.924;4.516;2022-10-31T01:21:13;14.00;99.90
24408;DHT22;12542;50.924;4.516;2022-10-31T01:23:40;13.90;99.90
24408;DHT22;12542;50.924;4.516;2022-10-31T01:26:15;13.90;99.90
24408;DHT22;12542;50.924;4.516;2022-10-31T01:29:22;13.70;99.90
24408;DHT22;12542;50.924;4.516;2022-10-31T01:31:41;13.70;99.90
24408;DHT22;12542;50.924;4.516;2022-10-31T01:34:08;13.50;99.90
24408;DHT22;12542;50.924;4.516;2022-10-31T01:36:38;13.30;99.90
24408;DHT22;12542;50.924;4.516;2022-10-31T01:39:06;13.30;99.90
24408;DHT22;12542;50.924;4.516;2022-10-31T01:41:35;13.40;99.90
24408;DHT22;12542;50.924;4.516;2022-10-31T01:44:43;13.40;99.90
24408;DHT22;12542;50.924;4.516;2022-10-31T01:49:51;13.50;99.90
24408;DHT22;12542;50.924;4.516;2022-10-31T01:52:34;13.60;99.90
24408;DHT22;12542;50.924;4.516;2022-10-31T01:55:18;13.60;99.90
24408;DHT22;12542;50.924;4.516;2022-10-31T01:57:48;13.60;99.90
24408;DHT22;12542;50.924;4.516;2022-10-31T02:00:17;13.50;99.90
24408;DHT22;12542;50.924;4.516;2022-10-31T02:02:45;13.50;99.90
24408;DHT22;12542;50.924;4.516;2022-10-31T02:05:16;13.50;99.90
24408;DHT22;12542;50.924;4.516;2022-10-31T02:07:51;13.50;99.90
24408;DHT22;12542;50.924;4.516;2022-10-31T02:10:21;13.40;99.90
24408;DHT22;12542;50.924;4.516;2022-10-31T02:12:52;13.40;99.90
24408;DHT22;12542;50.924;4.516;2022-10-31T02:15:19;13.30;99.90
24408;DHT22;12542;50.924;4.516;2022-10-31T02:17:47;13.30;99.90
24408;DHT22;12542;50.924;4.516;2022-10-31T02:20:19;13.30;99.90
24408;DHT22;12542;50.924;4.516;2022-10-31T02:28:30;13.30;99.90
24408;DHT22;12542;50.924;4.516;2022-10-31T02:31:22;13.20;99.90
24408;DHT22;12542;50.924;4.516;2022-10-31T02:33:57;13.30;99.90
24408;DHT22;12542;50.924;4.516;2022-10-31T02:44:39;13.30;99.90
24408;DHT22;12542;50.924;4.516;2022-10-31T02:47:16;13.20;99.90
24408;DHT22;12542;50.924;4.516;2022-10-31T02:50:06;13.20;99.90
24408;DHT22;12542;50.924;4.516;2022-10-31T02:52:34;13.20;99.90
24408;DHT22;12542;50.924;4.516;2022-10-31T02:57:56;13.10;99.90
24408;DHT22;12542;50.924;4.516;2022-10-31T03:00:22;13.10;99.90
24408;DHT22;12542;50.924;4.516;2022-10-31T03:11:12;12.90;99.90
24408;DHT22;12542;50.924;4.516;2022-10-31T03:14:02;12.90;99.90
24408;DHT22;12542;50.924;4.516;2022-10-31T03:16:51;12.80;99.90
24408;DHT22;12542;50.924;4.516;2022-10-31T03:19:31;12.90;99.90
24408;DHT22;12542;50.924;4.516;2022-10-31T03:22:06;12.90;99.90
24408;DHT22;12542;50.924;4.516;2022-10-31T03:24:37;12.90;99.90
24408;DHT22;12542;50.924;4.516;2022-10-31T03:27:06;12.80;99.90
24408;DHT22;12542;50.924;4.516;2022-10-31T03:29:35;12.80;99.90
24408;DHT22;12542;50.924;4.516;2022-10-31T03:32:07;12.90;99.90
24408;DHT22;12542;50.924;4.516;2022-10-31T03:34:36;12.80;99.90
24408;DHT22;12542;50.924;4.516;2022-10-31T03:37:06;12.90;99.90
24408;DHT22;12542;50.924;4.516;2022-10-31T03:39:33;12.80;99.90
24408;DHT22;12542;50.924;4.516;2022-10-31T03:42:07;12.80;99.90
24408;DHT22;12542;50.924;4.516;2022-10-31T03:44:35;12.70;99.90
24408;DHT22;12542;50.924;4.516;2022-10-31T03:47:04;12.70;99.90
24408;DHT22;12542;50.924;4.516;2022-10-31T03:49:30;12.70;99.90
24408;DHT22;12542;50.924;4.516;2022-10-31T03:54:46;12.60;99.90
24408;DHT22;12542;50.924;4.516;2022-10-31T03:57:32;12.60;99.90
24408;DHT22;12542;50.924;4.516;2022-10-31T04:02:32;12.50;99.90
24408;DHT22;12542;50.924;4.516;2022-10-31T04:04:59;12.50;99.90
24408;DHT22;12542;50.924;4.516;2022-10-31T04:07:28;12.50;99.90
24408;DHT22;12542;50.924;4.516;2022-10-31T04:09:57;12.50;99.90
24408;DHT22;12542;50.924;4.516;2022-10-31T04:12:25;12.50;99.90
24408;DHT22;12542;50.924;4.516;2022-10-31T04:14:55;12.50;99.90
24408;DHT22;12542;50.924;4.516;2022-10-31T04:17:23;12.50;99.90
24408;DHT22;12542;50.924;4.516;2022-10-31T04:19:53;12.50;99.90
24408;DHT22;12542;50.924;4.516;2022-10-31T04:22:18;12.20;99.90
24408;DHT22;12542;50.924;4.516;2022-10-31T04:24:44;12.20;99.90
24408;DHT22;12542;50.924;4.516;2022-10-31T04:27:10;12.30;99.90
24408;DHT22;12542;50.924;4.516;2022-10-31T04:29:36;12.30;99.90
24408;DHT22;12542;50.924;4.516;2022-10-31T04:32:02;12.20;99.90
24408;DHT22;12542;50.924;4.516;2022-10-31T04:34:27;12.40;99.90
24408;DHT22;12542;50.924;4.516;2022-10-31T04:36:53;12.30;99.90
24408;DHT22;12542;50.924;4.516;2022-10-31T04:39:18;12.40;99.90
24408;DHT22;12542;50.924;4.516;2022-10-31T04:41:46;12.30;99.90
24408;DHT22;12542;50.924;4.516;2022-10-31T04:44:12;12.30;99.90
24408;DHT22;12542;50.924;4.516;2022-10-31T04:46:38;12.20;99.90
24408;DHT22;12542;50.924;4.516;2022-10-31T04:49:04;12.30;99.90
24408;DHT22;12542;50.924;4.516;2022-10-31T04:51:29;12.40;99.90
24408;DHT22;12542;50.924;4.516;2022-10-31T04:53:55;12.40;99.90
24408;DHT22;12542;50.924;4.516;2022-10-31T04:56:21;12.30;99.90
24408;DHT22;12542;50.924;4.516;2022-10-31T04:58:47;12.30;99.90
24408;DHT22;12542;50.924;4.516;2022-10-31T05:01:13;12.20;99.90
24408;DHT22;12542;50.924;4.516;2022-10-31T05:03:38;12.20;99.90
24408;DHT22;12542;50.924;4.516;2022-10-31T05:06:05;12.10;99.90
24408;DHT22;12542;50.924;4.516;2022-10-31T05:08:33;12.10;99.90
24408;DHT22;12542;50.924;4.516;2022-10-31T05:11:02;12.20;99.90
24408;DHT22;12542;50.924;4.516;2022-10-31T05:13:28;12.00;99.90
24408;DHT22;12542;50.924;4.516;2022-10-31T05:15:54;11.90;99.90
24408;DHT22;12542;50.924;4.516;2022-10-31T05:18:20;12.00;99.90
24408;DHT22;12542;50.924;4.516;2022-10-31T05:20:46;12.00;99.90
24408;DHT22;12542;50.924;4.516;2022-10-31T05:23:11;12.10;99.90
24408;DHT22;12542;50.924;4.516;2022-10-31T05:25:37;12.10;99.90
24408;DHT22;12542;50.924;4.516;2022-10-31T05:28:04;12.20;99.90
24408;DHT22;12542;50.924;4.516;2022-10-31T05:30:31;12.20;99.90
24408;DHT22;12542;50.924;4.516;2022-10-31T05:32:57;12.30;99.90
24408;DHT22;12542;50.924;4.516;2022-10-31T05:35:41;12.30;99.90
24408;DHT22;12542;50.924;4.516;2022-10-31T05:38:07;12.30;99.90
24408;DHT22;12542;50.924;4.516;2022-10-31T05:40:32;12.30;99.90
24408;DHT22;12542;50.924;4.516;2022-10-31T05:42:58;12.40;99.90
24408;DHT22;12542;50.924;4.516;2022-10-31T05:45:24;12.40;99.90
24408;DHT22;12542;50.924;4.516;2022-10-31T05:47:52;12.40;99.90
24408;DHT22;12542;50.924;4.516;2022-10-31T05:50:18;12.50;99.90
24408;DHT22;12542;50.924;4.516;2022-10-31T05:52:43;12.20;99.90
24408;DHT22;12542;50.924;4.516;2022-10-31T05:55:09;12.10;99.90
24408;DHT22;12542;50.924;4.516;2022-10-31T05:57:35;12.20;99.90
24408;DHT22;12542;50.924;4.516;2022-10-31T06:00:00;12.30;99.90
24408;DHT22;12542;50.924;4.516;2022-10-31T06:02:26;12.30;99.90
24408;DHT22;12542;50.924;4.516;2022-10-31T06:04:52;12.30;99.90
24408;DHT22;12542;50.924;4.516;2022-10-31T06:07:18;12.40;99.90
24408;DHT22;12542;50.924;4.516;2022-10-31T06:09:43;12.50;99.90
24408;DHT22;12542;50.924;4.516;2022-10-31T06:12:09;12.50;99.90
24408;DHT22;12542;50.924;4.516;2022-10-31T06:14:35;12.50;99.90
24408;DHT22;12542;50.924;4.516;2022-10-31T06:17:00;12.60;99.90
24408;DHT22;12542;50.924;4.516;2022-10-31T06:19:26;12.50;99.90
24408;DHT22;12542;50.924;4.516;2022-10-31T06:21:52;12.60;99.90
24408;DHT22;12542;50.924;4.516;2022-10-31T06:24:18;12.60;99.90
24408;DHT22;12542;50.924;4.516;2022-10-31T06:26:43;12.60;99.90
24408;DHT22;12542;50.924;4.516;2022-10-31T06:29:10;12.60;99.90
24408;DHT22;12542;50.924;4.516;2022-10-31T06:31:35;12.50;99.90
24408;DHT22;12542;50.924;4.516;2022-10-31T06:34:01;12.60;99.90
24408;DHT22;12542;50.924;4.516;2022-10-31T06:36:27;12.70;99.90
24408;DHT22;12542;50.924;4.516;2022-10-31T06:38:53;12.80;99.90
24408;DHT22;12542;50.924;4.516;2022-10-31T06:41:19;12.80;99.90
24408;DHT22;12542;50.924;4.516;2022-10-31T06:43:48;12.90;99.90
24408;DHT22;12542;50.924;4.516;2022-10-31T06:46:13;12.90;99.90
24408;DHT22;12542;50.924;4.516;2022-10-31T06:48:43;12.90;99.90
24408;DHT22;12542;50.924;4.516;2022-10-31T06:51:11;12.90;99.90
24408;DHT22;12542;50.924;4.516;2022-10-31T06:53:36;13.00;99.90
24408;DHT22;12542;50.924;4.516;2022-10-31T06:56:02;13.00;99.90
24408;DHT22;12542;50.924;4.516;2022-10-31T06:58:28;13.10;99.90
24408;DHT22;12542;50.924;4.516;2022-10-31T07:00:54;13.10;99.90
24408;DHT22;12542;50.924;4.516;2022-10-31T07:03:20;13.20;99.90
24408;DHT22;12542;50.924;4.516;2022-10-31T07:05:46;13.20;99.90
24408;DHT22;12542;50.924;4.516;2022-10-31T07:08:13;13.20;99.90
24408;DHT22;12542;50.924;4.516;2022-10-31T07:10:40;13.30;99.90
24408;DHT22;12542;50.924;4.516;2022-10-31T07:13:11;13.40;99.90
24408;DHT22;12542;50.924;4.516;2022-10-31T07:15:39;13.60;99.90
24408;DHT22;12542;50.924;4.516;2022-10-31T07:18:07;13.50;99.90
24408;DHT22;12542;50.924;4.516;2022-10-31T07:20:34;13.60;99.90
24408;DHT22;12542;50.924;4.516;2022-10-31T07:23:00;13.60;99.90
24408;DHT22;12542;50.924;4.516;2022-10-31T07:25:26;13.70;99.90
24408;DHT22;12542;50.924;4.516;2022-10-31T07:27:52;13.80;99.90
24408;DHT22;12542;50.924;4.516;2022-10-31T07:30:17;13.80;99.90
24408;DHT22;12542;50.924;4.516;2022-10-31T07:32:46;13.70;99.90
24408;DHT22;12542;50.924;4.516;2022-10-31T07:35:15;13.70;99.90
24408;DHT22;12542;50.924;4.516;2022-10-31T07:37:41;13.70;99.90
24408;DHT22;12542;50.924;4.516;2022-10-31T07:40:08;13.80;99.90
24408;DHT22;12542;50.924;4.516;2022-10-31T07:42:38;13.70;99.90
24408;DHT22;12542;50.924;4.516;2022-10-31T07:45:06;13.60;99.90
24408;DHT22;12542;50.924;4.516;2022-10-31T07:47:40;13.70;99.90
24408;DHT22;12542;50.924;4.516;2022-10-31T07:50:08;13.60;99.90
24408;DHT22;12542;50.924;4.516;2022-10-31T07:52:34;13.60;99.90
24408;DHT22;12542;50.924;4.516;2022-10-31T07:55:04;13.60;99.90
24408;DHT22;12542;50.924;4.516;2022-10-31T07:57:30;13.70;99.90
24408;DHT22;12542;50.924;4.516;2022-10-31T07:59:56;13.80;99.90
24408;DHT22;12542;50.924;4.516;2022-10-31T08:02:21;13.90;99.90
24408;DHT22;12542;50.924;4.516;2022-10-31T08:04:48;14.00;99.90
24408;DHT22;12542;50.924;4.516;2022-10-31T08:07:15;14.10;99.90
24408;DHT22;12542;50.924;4.516;2022-10-31T08:09:40;14.00;99.90
24408;DHT22;12542;50.924;4.516;2022-10-31T08:12:06;14.20;99.90
24408;DHT22;12542;50.924;4.516;2022-10-31T08:14:32;14.10;99.90
24408;DHT22;12542;50.924;4.516;2022-10-31T08:16:58;14.30;99.90
24408;DHT22;12542;50.924;4.516;2022-10-31T08:19:24;14.50;99.90
24408;DHT22;12542;50.924;4.516;2022-10-31T08:21:51;14.60;99.90
24408;DHT22;12542;50.924;4.516;2022-10-31T08:24:17;14.80;99.90
24408;DHT22;12542;50.924;4.516;2022-10-31T08:26:46;14.80;99.90
24408;DHT22;12542;50.924;4.516;2022-10-31T08:29:12;14.80;99.90
24408;DHT22;12542;50.924;4.516;2022-10-31T08:31:39;14.90;99.90
24408;DHT22;12542;50.924;4.516;2022-10-31T08:34:04;14.70;99.90
24408;DHT22;12542;50.924;4.516;2022-10-31T08:36:30;14.70;99.90
24408;DHT22;12542;50.924;4.516;2022-10-31T08:38:56;14.80;99.90
24408;DHT22;12542;50.924;4.516;2022-10-31T08:41:22;14.80;99.90
24408;DHT22;12542;50.924;4.516;2022-10-31T08:43:48;15.00;99.90
24408;DHT22;12542;50.924;4.516;2022-10-31T08:46:14;15.10;99.90
24408;DHT22;12542;50.924;4.516;2022-10-31T08:48:40;15.20;99.90
24408;DHT22;12542;50.924;4.516;2022-10-31T08:51:06;15.10;99.90
24408;DHT22;12542;50.924;4.516;2022-10-31T08:53:32;15.10;99.90
24408;DHT22;12542;50.924;4.516;2022-10-31T08:56:00;14.80;99.90
24408;DHT22;12542;50.924;4.516;2022-10-31T08:58:25;15.10;99.90
24408;DHT22;12542;50.924;4.516;2022-10-31T09:00:53;15.10;99.90
24408;DHT22;12542;50.924;4.516;2022-10-31T09:03:21;14.90;99.90
24408;DHT22;12542;50.924;4.516;2022-10-31T09:05:48;14.80;99.90
24408;DHT22;12542;50.924;4.516;2022-10-31T09:08:15;14.80;99.90
24408;DHT22;12542;50.924;4.516;2022-10-31T09:10:41;14.80;99.90
24408;DHT22;12542;50.924;4.516;2022-10-31T09:13:10;14.90;99.90
24408;DHT22;12542;50.924;4.516;2022-10-31T09:15:38;15.00;99.90
24408;DHT22;12542;50.924;4.516;2022-10-31T09:18:05;15.10;99.90
24408;DHT22;12542;50.924;4.516;2022-10-31T09:20:33;15.20;99.90
24408;DHT22;12542;50.924;4.516;2022-10-31T09:23:05;15.30;99.90
24408;DHT22;12542;50.924;4.516;2022-10-31T09:25:32;15.40;99.90
24408;DHT22;12542;50.924;4.516;2022-10-31T09:28:00;15.40;99.90
24408;DHT22;12542;50.924;4.516;2022-10-31T09:30:27;15.50;99.90
24408;DHT22;12542;50.924;4.516;2022-10-31T09:32:58;15.30;99.90
24408;DHT22;12542;50.924;4.516;2022-10-31T09:35:24;15.40;99.90
24408;DHT22;12542;50.924;4.516;2022-10-31T09:38:03;15.40;99.90
24408;DHT22;12542;50.924;4.516;2022-10-31T09:40:34;15.50;99.90
24408;DHT22;12542;50.924;4.516;2022-10-31T09:48:37;15.30;99.90
24408;DHT22;12542;50.924;4.516;2022-10-31T09:51:16;15.30;99.90
24408;DHT22;12542;50.924;4.516;2022-10-31T09:56:38;15.40;99.90
24408;DHT22;12542;50.924;4.516;2022-10-31T09:59:06;15.60;99.90
24408;DHT22;12542;50.924;4.516;2022-10-31T10:01:49;15.80;99.90
24408;DHT22;12542;50.924;4.516;2022-10-31T10:06:46;15.60;99.90
24408;DHT22;12542;50.924;4.516;2022-10-31T10:09:12;15.70;99.90
24408;DHT22;12542;50.924;4.516;2022-10-31T10:12:09;15.80;99.90
24408;DHT22;12542;50.924;4.516;2022-10-31T10:17:42;16.10;99.90
24408;DHT22;12542;50.924;4.516;2022-10-31T10:20:27;16.40;99.90
24408;DHT22;12542;50.924;4.516;2022-10-31T10:23:35;16.50;99.90
24408;DHT22;12542;50.924;4.516;2022-10-31T10:26:17;16.50;99.90
24408;DHT22;12542;50.924;4.516;2022-10-31T10:28:58;16.70;99.90
24408;DHT22;12542;50.924;4.516;2022-10-31T10:31:35;16.60;99.90
24408;DHT22;12542;50.924;4.516;2022-10-31T10:34:30;16.50;99.90
24408;DHT22;12542;50.924;4.516;2022-10-31T10:37:13;16.70;99.90
24408;DHT22;12542;50.924;4.516;2022-10-31T10:39:49;16.80;99.90
24408;DHT22;12542;50.924;4.516;2022-10-31T10:42:16;16.80;99.90
24408;DHT22;12542;50.924;4.516;2022-10-31T10:45:14;17.10;99.90
24408;DHT22;12542;50.924;4.516;2022-10-31T10:48:14;17.10;99.90
24408;DHT22;12542;50.924;4.516;2022-10-31T10:50:46;17.10;99.90
24408;DHT22;12542;50.924;4.516;2022-10-31T10:53:39;16.90;99.90
24408;DHT22;12542;50.924;4.516;2022-10-31T10:56:56;16.70;99.90
24408;DHT22;12542;50.924;4.516;2022-10-31T10:59:23;16.90;99.90
24408;DHT22;12542;50.924;4.516;2022-10-31T11:01:51;17.00;99.90
24408;DHT22;12542;50.924;4.516;2022-10-31T11:06:45;17.20;99.90
24408;DHT22;12542;50.924;4.516;2022-10-31T11:09:14;17.20;99.90
24408;DHT22;12542;50.924;4.516;2022-10-31T11:11:42;17.10;99.90
24408;DHT22;12542;50.924;4.516;2022-10-31T11:14:14;17.20;99.90
24408;DHT22;12542;50.924;4.516;2022-10-31T11:16:45;17.20;99.90
24408;DHT22;12542;50.924;4.516;2022-10-31T11:19:23;17.30;99.90
24408;DHT22;12542;50.924;4.516;2022-10-31T11:21:50;17.40;99.90
24408;DHT22;12542;50.924;4.516;2022-10-31T11:24:18;17.40;99.90
24408;DHT22;12542;50.924;4.516;2022-10-31T11:26:47;17.60;99.90
24408;DHT22;12542;50.924;4.516;2022-10-31T11:29:25;17.60;99.90
24408;DHT22;12542;50.924;4.516;2022-10-31T11:31:56;17.60;99.90
24408;DHT22;12542;50.924;4.516;2022-10-31T11:34:43;17.80;99.90
24408;DHT22;12542;50.924;4.516;2022-10-31T11:37:24;17.90;99.90
24408;DHT22;12542;50.924;4.516;2022-10-31T11:39:55;18.00;99.90
24408;DHT22;12542;50.924;4.516;2022-10-31T11:42:34;18.10;99.90
24408;DHT22;12542;50.924;4.516;2022-10-31T11:45:06;18.30;99.90
24408;DHT22;12542;50.924;4.516;2022-10-31T11:47:33;18.30;99.90
24408;DHT22;12542;50.924;4.516;2022-10-31T11:50:02;18.30;99.90
24408;DHT22;12542;50.924;4.516;2022-10-31T11:52:34;18.10;99.90
24408;DHT22;12542;50.924;4.516;2022-10-31T11:57:43;17.90;99.90
24408;DHT22;12542;50.924;4.516;2022-10-31T12:00:29;18.00;99.90
24408;DHT22;12542;50.924;4.516;2022-10-31T12:03:27;18.10;99.90
24408;DHT22;12542;50.924;4.516;2022-10-31T12:06:02;18.10;99.90
24408;DHT22;12542;50.924;4.516;2022-10-31T12:08:35;18.40;99.90
24408;DHT22;12542;50.924;4.516;2022-10-31T12:14:26;18.70;99.90
24408;DHT22;12542;50.924;4.516;2022-10-31T12:17:18;19.00;99.90
24408;DHT22;12542;50.924;4.516;2022-10-31T12:22:49;19.40;99.90
24408;DHT22;12542;50.924;4.516;2022-10-31T12:39:40;19.60;99.90
24408;DHT22;12542;50.924;4.516;2022-10-31T12:42:36;19.50;99.90
24408;DHT22;12542;50.924;4.516;2022-10-31T12:58:31;19.50;99.90
24408;DHT22;12542;50.924;4.516;2022-10-31T13:01:09;19.60;99.90
24408;DHT22;12542;50.924;4.516;2022-10-31T13:06:49;19.50;99.90
24408;DHT22;12542;50.924;4.516;2022-10-31T13:09:20;19.60;99.90
24408;DHT22;12542;50.924;4.516;2022-10-31T13:11:57;19.60;99.90
24408;DHT22;12542;50.924;4.516;2022-10-31T13:14:28;19.60;99.90
24408;DHT22;12542;50.924;4.516;2022-10-31T13:16:55;19.70;99.90
24408;DHT22;12542;50.924;4.516;2022-10-31T13:19:32;19.80;99.90
24408;DHT22;12542;50.924;4.516;2022-10-31T13:27:26;20.00;99.90
24408;DHT22;12542;50.924;4.516;2022-10-31T13:30:12;20.00;99.90
24408;DHT22;12542;50.924;4.516;2022-10-31T13:33:07;20.20;99.90
24408;DHT22;12542;50.924;4.516;2022-10-31T13:43:39;20.00;99.90
24408;DHT22;12542;50.924;4.516;2022-10-31T13:46:34;20.00;99.90
24408;DHT22;12542;50.924;4.516;2022-10-31T13:49:01;20.10;99.90
24408;DHT22;12542;50.924;4.516;2022-10-31T13:51:29;20.20;99.90
24408;DHT22;12542;50.924;4.516;2022-10-31T13:54:06;20.20;99.90
24408;DHT22;12542;50.924;4.516;2022-10-31T13:56:49;20.20;99.90
24408;DHT22;12542;50.924;4.516;2022-10-31T13:59:24;20.00;99.90
24408;DHT22;12542;50.924;4.516;2022-10-31T14:01:58;20.10;99.90
24408;DHT22;12542;50.924;4.516;2022-10-31T14:07:17;20.20;99.90
24408;DHT22;12542;50.924;4.516;2022-10-31T14:10:01;20.10;99.90
24408;DHT22;12542;50.924;4.516;2022-10-31T14:12:41;19.90;99.90
24408;DHT22;12542;50.924;4.516;2022-10-31T14:15:24;19.90;99.90
24408;DHT22;12542;50.924;4.516;2022-10-31T14:17:59;19.80;99.90
24408;DHT22;12542;50.924;4.516;2022-10-31T14:20:43;19.80;99.90
24408;DHT22;12542;50.924;4.516;2022-10-31T14:28:53;19.80;99.90
24408;DHT22;12542;50.924;4.516;2022-10-31T14:34:50;19.90;99.90
24408;DHT22;12542;50.924;4.516;2022-10-31T14:43:22;19.60;99.90
24408;DHT22;12542;50.924;4.516;2022-10-31T14:46:15;19.60;99.90
24408;DHT22;12542;50.924;4.516;2022-10-31T14:51:50;19.30;99.90
24408;DHT22;12542;50.924;4.516;2022-10-31T14:54:23;19.40;99.90
24408;DHT22;12542;50.924;4.516;2022-10-31T14:56:54;19.30;99.90
24408;DHT22;12542;50.924;4.516;2022-10-31T14:59:26;19.40;99.90
24408;DHT22;12542;50.924;4.516;2022-10-31T15:02:19;19.30;99.90
24408;DHT22;12542;50.924;4.516;2022-10-31T15:04:45;19.10;99.90
24408;DHT22;12542;50.924;4.516;2022-10-31T15:07:17;19.10;99.90
24408;DHT22;12542;50.924;4.516;2022-10-31T15:09:44;19.00;99.90
24408;DHT22;12542;50.924;4.516;2022-10-31T15:12:28;19.10;99.90
24408;DHT22;12542;50.924;4.516;2022-10-31T15:14:54;19.00;99.90
24408;DHT22;12542;50.924;4.516;2022-10-31T15:17:22;18.90;99.90
24408;DHT22;12542;50.924;4.516;2022-10-31T15:19:49;18.90;99.90
24408;DHT22;12542;50.924;4.516;2022-10-31T15:22:20;18.90;99.90
24408;DHT22;12542;50.924;4.516;2022-10-31T15:24:48;18.80;99.90
24408;DHT22;12542;50.924;4.516;2022-10-31T15:27:21;18.80;99.90
24408;DHT22;12542;50.924;4.516;2022-10-31T15:29:50;18.80;99.90
24408;DHT22;12542;50.924;4.516;2022-10-31T15:32:20;18.80;99.90
24408;DHT22;12542;50.924;4.516;2022-10-31T15:34:48;18.80;99.90
24408;DHT22;12542;50.924;4.516;2022-10-31T15:37:16;18.60;99.90
24408;DHT22;12542;50.924;4.516;2022-10-31T15:39:44;18.50;99.90
24408;DHT22;12542;50.924;4.516;2022-10-31T15:42:27;18.40;99.90
24408;DHT22;12542;50.924;4.516;2022-10-31T15:47:35;18.60;99.90
24408;DHT22;12542;50.924;4.516;2022-10-31T15:50:02;18.50;99.90
24408;DHT22;12542;50.924;4.516;2022-10-31T15:52:33;18.40;99.90
24408;DHT22;12542;50.924;4.516;2022-10-31T15:55:44;18.40;99.90
24408;DHT22;12542;50.924;4.516;2022-10-31T15:57:58;18.30;99.90
24408;DHT22;12542;50.924;4.516;2022-10-31T16:00:28;18.30;99.90
24408;DHT22;12542;50.924;4.516;2022-10-31T16:03:06;18.20;99.90
24408;DHT22;12542;50.924;4.516;2022-10-31T16:05:38;18.00;99.90
24408;DHT22;12542;50.924;4.516;2022-10-31T16:08:04;17.70;99.90
24408;DHT22;12542;50.924;4.516;2022-10-31T16:10:33;17.70;99.90
24408;DHT22;12542;50.924;4.516;2022-10-31T16:13:01;17.80;99.90
24408;DHT22;12542;50.924;4.516;2022-10-31T16:15:28;17.90;99.90
24408;DHT22;12542;50.924;4.516;2022-10-31T16:17:55;17.80;99.90
24408;DHT22;12542;50.924;4.516;2022-10-31T16:20:26;17.80;99.90
24408;DHT22;12542;50.924;4.516;2022-10-31T16:22:54;17.60;99.90
24408;DHT22;12542;50.924;4.516;2022-10-31T16:25:36;17.50;99.90
24408;DHT22;12542;50.924;4.516;2022-10-31T16:28:20;17.40;99.90
24408;DHT22;12542;50.924;4.516;2022-10-31T16:30:49;17.30;99.90
24408;DHT22;12542;50.924;4.516;2022-10-31T16:33:35;17.10;99.90
24408;DHT22;12542;50.924;4.516;2022-10-31T16:38:57;17.10;99.90
24408;DHT22;12542;50.924;4.516;2022-10-31T16:41:26;17.10;99.90
24408;DHT22;12542;50.924;4.516;2022-10-31T16:43:52;17.00;99.90
24408;DHT22;12542;50.924;4.516;2022-10-31T16:46:24;17.00;99.90
24408;DHT22;12542;50.924;4.516;2022-10-31T16:48:50;16.90;99.90
24408;DHT22;12542;50.924;4.516;2022-10-31T16:51:17;16.80;99.90
24408;DHT22;12542;50.924;4.516;2022-10-31T16:53:42;16.70;99.90
24408;DHT22;12542;50.924;4.516;2022-10-31T16:56:17;16.70;99.90
24408;DHT22;12542;50.924;4.516;2022-10-31T16:58:46;16.80;99.90
24408;DHT22;12542;50.924;4.516;2022-10-31T17:01:12;16.80;99.90
24408;DHT22;12542;50.924;4.516;2022-10-31T17:03:38;16.80;99.90
24408;DHT22;12542;50.924;4.516;2022-10-31T17:06:04;16.80;99.90
24408;DHT22;12542;50.924;4.516;2022-10-31T17:08:30;16.80;99.90
24408;DHT22;12542;50.924;4.516;2022-10-31T17:10:57;16.50;99.90
24408;DHT22;12542;50.924;4.516;2022-10-31T17:13:27;16.60;99.90
24408;DHT22;12542;50.924;4.516;2022-10-31T17:15:56;16.60;99.90
24408;DHT22;12542;50.924;4.516;2022-10-31T17:18:23;16.50;99.90
24408;DHT22;12542;50.924;4.516;2022-10-31T17:20:58;16.50;99.90
24408;DHT22;12542;50.924;4.516;2022-10-31T17:23:26;16.50;99.90
24408;DHT22;12542;50.924;4.516;2022-10-31T17:25:53;16.30;99.90
24408;DHT22;12542;50.924;4.516;2022-10-31T17:28:19;16.20;99.90
24408;DHT22;12542;50.924;4.516;2022-10-31T17:30:44;16.20;99.90
24408;DHT22;12542;50.924;4.516;2022-10-31T17:33:15;16.20;99.90
24408;DHT22;12542;50.924;4.516;2022-10-31T17:35:41;16.20;99.90
24408;DHT22;12542;50.924;4.516;2022-10-31T17:38:07;16.30;99.90
24408;DHT22;12542;50.924;4.516;2022-10-31T17:40:36;16.30;99.90
24408;DHT22;12542;50.924;4.516;2022-10-31T17:43:03;16.30;99.90
24408;DHT22;12542;50.924;4.516;2022-10-31T17:45:29;16.30;99.90
24408;DHT22;12542;50.924;4.516;2022-10-31T17:47:55;16.40;99.90
24408;DHT22;12542;50.924;4.516;2022-10-31T17:50:23;16.50;99.90
24408;DHT22;12542;50.924;4.516;2022-10-31T17:52:49;16.40;99.90
24408;DHT22;12542;50.924;4.516;2022-10-31T17:55:15;16.40;99.90
24408;DHT22;12542;50.924;4.516;2022-10-31T17:57:42;16.50;99.90
24408;DHT22;12542;50.924;4.516;2022-10-31T18:00:16;16.60;99.90